Rosice, Czech Republic
Current Conditions -  °F | °C
As of 2:00 PM on Thursday 23 Oct 2014 (Local Time) from LKNA Reporting Station
Overcast Overcast  
Wind Chill: 39°   Ceiling: 1100
Heat Index: 46°   Visibility: 6mi
Dew Point: 43°   Wind: 18mph
Humidity: 87%   Direction: 350°N
Pressure: 29.91"   Gusts: 30mph
Location:  49.18°N, 16.38°E
Report Text: LKNA 231200Z 35016G26KT 9999 SCT009 OVC011 08/06 Q1013 NOSIG
Loading
Personal Weather Stations






























Interactive Weather Map
Tropical Storm Tracking
New forecast layout! Learn more

10-Day Weather Forecast

Advertisements
Track Severe Weather on mobile